Terminal Aerodrome Forecast
Issued by NWS

Home | Current Version | Previous Version | Text Only | Print | Product List | Glossary On
Versions: 1 2 3 4 5 6 7 8 9 10 11 12 13 14 15 16 17 18 19 20 21 22 23 24 25 26 27 28 29 30 31 32 33 34 35 36 37 38 39 40 41 42 43 44 45 46
000
FTUS45 KBOU 232329
TAFAPA
TAF
KAPA 232329Z 2400/2424 33010KT P6SM VCSH SCT090 BKN130
      TEMPO 2400/2402 VRB20G35KT
     FM240200 18010KT P6SM FEW090 SCT130 BKN200
     FM240700 22010KT P6SM SCT130 BKN220
     FM241600 VRB06KT P6SM FEW090
     FM241900 12007KT P6SM SCT090
     FM242200 10008KT P6SM SCT090 BKN130 PROB30 2422/2424 VRB20G30KT
      -TSRA BKN090CB=

USA.gov is the U.S. government's official web portal to all federal, state and local government web resources and services.